Time;durP1;ratioP1;P1;durP2;ratioP2;P2;SDS_P1;SDS_P2;PMS_P1;PMS_P2;Temp;Humidity;BMP_temperature;BMP_pressure;BME280_temperature;BME280_humidity;BME280_pressure;Samples;Min_cycle;Max_cycle;Signal;HPM_P1;HPM_P2
2022/12/07 00:00:48;;;;;;;42.53;20.88;;;;;;;5.15;100.00;100868.78;5006478;28;20054;-77
2022/12/07 00:03:13;;;;;;;35.30;19.52;;;;;;;5.21;100.00;100866.34;5003771;28;20049;-79
2022/12/07 00:05:39;;;;;;;33.92;20.52;;;;;;;5.16;100.00;100851.44;5007141;28;20030;-78
2022/12/07 00:08:04;;;;;;;31.40;17.15;;;;;;;4.94;100.00;100831.72;5006350;28;20054;-78
2022/12/07 00:10:30;;;;;;;38.28;19.17;;;;;;;5.18;100.00;100853.25;5009400;28;20513;-77
2022/12/07 00:12:55;;;;;;;38.22;18.15;;;;;;;5.13;100.00;100856.53;5010085;28;20505;-76
2022/12/07 00:15:21;;;;;;;34.38;18.15;;;;;;;5.07;100.00;100837.31;5008111;28;20731;-77
2022/12/07 00:17:46;;;;;;;36.50;16.83;;;;;;;5.05;100.00;100840.72;5009791;28;20045;-77
2022/12/07 00:20:12;;;;;;;42.58;20.52;;;;;;;5.03;100.00;100843.28;5010737;28;20064;-79
2022/12/07 00:22:37;;;;;;;31.65;16.70;;;;;;;5.11;100.00;100855.63;5008740;28;20049;-76
2022/12/07 00:25:03;;;;;;;37.80;19.70;;;;;;;4.33;100.00;100709.53;5010022;28;20066;-77
2022/12/07 00:27:31;;;;;;;40.88;20.00;;;;;;;5.10;100.00;100835.66;5010081;28;20038;-78
2022/12/07 00:29:57;;;;;;;34.53;20.38;;;;;;;4.58;100.00;100752.69;5010546;28;20034;-76
2022/12/07 00:32:22;;;;;;;34.72;21.73;;;;;;;5.03;100.00;100827.69;5005420;28;20034;-78
2022/12/07 00:34:47;;;;;;;28.83;18.55;;;;;;;4.25;100.00;100704.94;5008289;28;20077;-77
2022/12/07 00:37:13;;;;;;;29.75;19.00;;;;;;;5.08;100.00;100843.44;5008862;28;20387;-79
2022/12/07 00:39:38;;;;;;;26.48;17.58;;;;;;;4.49;100.00;100717.75;4998561;28;20046;-76
2022/12/07 00:42:04;;;;;;;31.30;17.98;;;;;;;4.32;100.00;100709.47;5006114;28;20092;-77
2022/12/07 00:44:29;;;;;;;29.38;16.40;;;;;;;4.99;100.00;100825.84;5002524;28;20050;-78
2022/12/07 00:46:55;;;;;;;27.27;17.73;;;;;;;5.06;100.00;100837.31;4999163;28;20062;-81
2022/12/07 00:49:21;;;;;;;32.72;17.95;;;;;;;4.90;100.00;100816.88;5009806;28;20486;-78
2022/12/07 00:51:48;;;;;;;33.08;19.00;;;;;;;4.90;100.00;100799.56;5006466;28;20038;-77
2022/12/07 00:54:15;;;;;;;27.42;15.68;;;;;;;4.94;100.00;100810.91;5009447;28;20060;-77
2022/12/07 00:56:40;;;;;;;38.60;16.02;;;;;;;4.93;100.00;100796.16;5009390;28;20041;-79
2022/12/07 00:59:06;;;;;;;43.42;19.15;;;;;;;4.48;100.00;100723.81;5009147;28;20513;-76
2022/12/07 01:01:36;;;;;;;28.80;14.48;;;;;;;4.53;100.00;100756.88;5006592;28;20041;-76
2022/12/07 01:04:02;;;;;;;39.05;19.63;;;;;;;5.15;100.00;100832.38;5007085;28;20049;-77
2022/12/07 01:06:29;;;;;;;24.15;15.25;;;;;;;5.14;100.00;100835.78;5009020;28;20100;-75
2022/12/07 01:08:55;;;;;;;31.45;17.80;;;;;;;4.56;100.00;100730.09;5008007;28;20410;-77
2022/12/07 01:11:24;;;;;;;28.52;16.80;;;;;;;5.04;100.00;100823.38;5001206;28;20082;-79
2022/12/07 01:13:51;;;;;;;31.52;16.35;;;;;;;4.50;100.00;100710.03;4988987;28;20741;-77
2022/12/07 01:16:18;;;;;;;30.65;16.77;;;;;;;5.18;100.00;100822.03;4995232;28;20046;-76
2022/12/07 01:18:50;;;;;;;36.40;18.58;;;;;;;4.99;100.00;100783.34;5004444;28;20058;-75
2022/12/07 01:21:18;;;;;;;36.53;16.80;;;;;;;5.00;100.00;100798.09;5003543;28;20050;-75
2022/12/07 01:23:44;;;;;;;32.60;18.55;;;;;;;5.20;100.00;100815.16;5004813;28;20143;-77
2022/12/07 01:26:12;;;;;;;36.78;18.50;;;;;;;5.22;100.00;100818.69;5009582;28;20100;-76
2022/12/07 01:28:38;;;;;;;28.23;15.23;;;;;;;5.22;100.00;100799.56;5009079;28;20042;-75
2022/12/07 01:31:11;;;;;;;31.25;17.90;;;;;;;4.32;100.00;100675.69;5009020;28;20041;-75
2022/12/07 01:33:38;;;;;;;35.50;16.83;;;;;;;5.03;100.00;100793.88;5008667;28;20489;-76
2022/12/07 01:36:12;;;;;;;26.55;13.90;;;;;;;4.52;100.00;100684.06;5000514;28;20049;-75
2022/12/07 01:38:38;;;;;;;31.13;17.63;;;;;;;5.02;100.00;100793.81;5009124;28;20030;-78
2022/12/07 01:41:04;;;;;;;37.20;19.20;;;;;;;4.99;100.00;100773.81;5008804;28;20044;-77
2022/12/07 01:43:32;;;;;;;31.13;16.75;;;;;;;4.52;100.00;100686.66;5012467;28;20122;-81
2022/12/07 01:45:58;;;;;;;30.92;17.80;;;;;;;4.62;100.00;100709.50;5024396;28;20041;-80
2022/12/07 01:48:30;;;;;;;35.17;16.90;;;;;;;4.67;100.00;100775.47;5014558;28;20622;-81
2022/12/07 01:50:59;;;;;;;32.83;18.33;;;;;;;4.98;100.00;100797.16;5008377;28;20494;-81
2022/12/07 01:53:28;;;;;;;37.80;18.73;;;;;;;4.73;100.00;100749.69;5006682;28;20469;-78
2022/12/07 01:55:55;;;;;;;35.15;20.10;;;;;;;4.92;100.00;100761.47;5000942;28;20583;-76
2022/12/07 01:58:21;;;;;;;35.25;18.75;;;;;;;4.99;100.00;100767.75;5008798;28;20049;-77
2022/12/07 02:00:49;;;;;;;33.75;17.52;;;;;;;4.95;100.00;100795.38;5010927;28;20053;-77
2022/12/07 02:03:21;;;;;;;35.90;19.27;;;;;;;4.42;100.00;100668.22;5008435;28;20506;-79
2022/12/07 02:05:48;;;;;;;32.03;20.02;;;;;;;5.10;100.00;100784.50;5008858;28;20140;-78
2022/12/07 02:08:15;;;;;;;34.90;19.92;;;;;;;4.63;100.00;100696.53;5009959;28;20044;-77
2022/12/07 02:10:40;;;;;;;39.00;20.63;;;;;;;5.02;100.00;100753.09;5007842;28;20058;-80
2022/12/07 02:13:40;;;;;;;34.08;18.33;;;;;;;5.18;100.00;100771.75;5005636;28;20517;-78
2022/12/07 02:16:26;;;;;;;43.17;22.55;;;;;;;5.05;100.00;100770.50;4992811;28;20141;-78
2022/12/07 02:19:10;;;;;;;32.45;16.15;;;;;;;4.96;100.00;100765.91;5005910;28;20077;-78
2022/12/07 02:21:56;;;;;;;36.90;20.00;;;;;;;5.00;100.00;100762.56;5007544;28;20045;-77
2022/12/07 02:25:00;;;;;;;44.67;21.05;;;;;;;5.06;100.00;100778.34;5006623;28;20041;-77
2022/12/07 02:27:47;;;;;;;31.52;15.05;;;;;;;5.13;100.00;100775.91;4985248;28;20050;-79
2022/12/07 02:30:16;;;;;;;33.53;16.17;;;;;;;4.51;100.00;100659.81;5006125;28;20046;-79
2022/12/07 02:32:48;;;;;;;27.73;18.85;;;;;;;5.20;100.00;100773.53;5006477;28;20454;-77
2022/12/07 02:35:33;;;;;;;35.15;17.63;;;;;;;4.39;100.00;100643.88;5002461;28;20045;-76
2022/12/07 02:38:10;;;;;;;36.80;20.23;;;;;;;4.35;100.00;100644.59;5007368;28;20140;-76
2022/12/07 02:41:10;;;;;;;29.42;18.50;;;;;;;5.11;100.00;100773.28;5007515;28;20160;-75
2022/12/07 02:43:43;;;;;;;34.45;18.50;;;;;;;4.28;100.00;100640.94;5003450;28;20057;-76
2022/12/07 02:46:19;;;;;;;33.37;16.97;;;;;;;5.07;100.00;100751.50;5005699;28;20052;-79
2022/12/07 02:48:46;;;;;;;31.17;16.95;;;;;;;4.75;100.00;100690.81;5005238;28;20049;-79
2022/12/07 02:51:12;;;;;;;27.08;16.75;;;;;;;4.20;100.00;100613.88;5006817;28;20050;-77
2022/12/07 02:53:39;;;;;;;27.77;16.30;;;;;;;4.80;100.00;100742.91;4999163;28;20040;-76
2022/12/07 02:56:26;;;;;;;26.15;14.88;;;;;;;4.95;100.00;100745.97;5006919;28;20053;-79
2022/12/07 02:59:10;;;;;;;31.80;17.83;;;;;;;5.06;100.00;100741.06;5005389;28;20117;-76
2022/12/07 03:02:18;;;;;;;32.30;18.60;;;;;;;5.00;100.00;100725.28;5008289;28;20096;-77
2022/12/07 03:04:53;;;;;;;27.73;17.00;;;;;;;4.97;100.00;100743.41;4985869;28;20077;-77
2022/12/07 03:07:24;;;;;;;38.15;18.83;;;;;;;5.06;100.00;100754.94;5006001;28;20513;-77
2022/12/07 03:09:49;;;;;;;31.13;17.58;;;;;;;5.11;100.00;100754.19;5007290;28;20042;-77
2022/12/07 03:12:27;;;;;;;32.20;15.05;;;;;;;4.43;100.00;100614.56;5004163;28;20555;-79
2022/12/07 03:15:00;;;;;;;31.52;15.70;;;;;;;5.10;100.00;100757.63;5001248;28;20026;-78
2022/12/07 03:17:31;;;;;;;27.17;14.90;;;;;;;4.73;100.00;100699.38;5007214;28;20084;-75
2022/12/07 03:20:00;;;;;;;33.47;16.67;;;;;;;4.77;100.00;100693.44;5005335;28;20384;-78
2022/12/07 03:22:31;;;;;;;25.38;13.85;;;;;;;5.08;100.00;100755.88;5006875;28;20076;-80
2022/12/07 03:25:05;;;;;;;25.73;17.08;;;;;;;4.92;100.00;100737.22;5006756;28;20038;-76
2022/12/07 03:27:40;;;;;;;33.97;15.98;;;;;;;4.48;100.00;100727.28;5006401;28;20057;-76
2022/12/07 03:30:14;;;;;;;24.70;14.50;;;;;;;4.35;100.00;100665.41;5006592;28;20112;-79
2022/12/07 03:32:56;;;;;;;24.67;16.50;;;;;;;4.63;100.00;100716.44;5005556;28;20156;-77
2022/12/07 03:35:30;;;;;;;24.58;14.02;;;;;;;5.00;100.00;100764.28;5002482;28;20081;-77
2022/12/07 03:38:13;;;;;;;33.80;18.60;;;;;;;4.74;100.00;100714.16;5000244;28;20045;-80
2022/12/07 03:40:49;;;;;;;26.77;15.60;;;;;;;4.91;100.00;100766.63;5003256;28;20038;-77
2022/12/07 03:43:19;;;;;;;25.02;12.88;;;;;;;4.77;100.00;100741.09;5007197;28;20050;-78
2022/12/07 03:46:00;;;;;;;24.48;14.05;;;;;;;4.83;100.00;100727.41;5007865;28;20089;-79
2022/12/07 03:48:40;;;;;;;28.13;15.77;;;;;;;4.32;100.00;100649.72;5011937;28;20054;-79
2022/12/07 03:51:12;;;;;;;33.78;16.00;;;;;;;4.95;100.00;100766.75;5010346;28;20053;-78
2022/12/07 03:53:51;;;;;;;26.40;16.88;;;;;;;4.27;100.00;100635.72;5004042;28;20025;-78
2022/12/07 03:56:18;;;;;;;29.88;16.60;;;;;;;4.91;100.00;100767.50;5006033;28;20050;-78
2022/12/07 03:58:43;;;;;;;26.30;15.20;;;;;;;4.07;100.00;100632.53;5009732;28;20042;-77
2022/12/07 04:01:09;;;;;;;27.95;15.15;;;;;;;4.80;100.00;100763.72;5011578;28;20049;-77
2022/12/07 04:03:35;;;;;;;30.38;16.48;;;;;;;4.31;100.00;100718.09;5010472;28;20100;-78
2022/12/07 04:06:01;;;;;;;29.45;16.42;;;;;;;4.77;100.00;100763.63;5008859;28;20497;-75
2022/12/07 04:08:26;;;;;;;23.02;13.68;;;;;;;4.49;100.00;100749.81;5010595;28;20030;-79
2022/12/07 04:10:53;;;;;;;32.67;16.38;;;;;;;4.84;100.00;100776.84;5010286;28;20532;-76
2022/12/07 04:13:19;;;;;;;21.45;13.25;;;;;;;3.57;100.00;100541.94;5008064;28;20053;-75
2022/12/07 04:15:44;;;;;;;30.13;16.20;;;;;;;4.76;100.00;100747.16;5038185;28;20058;-76
2022/12/07 04:18:10;;;;;;;25.02;14.85;;;;;;;4.94;100.00;100767.63;5008905;28;20045;-78
2022/12/07 04:20:35;;;;;;;24.42;15.25;;;;;;;4.88;100.00;100769.16;5010099;28;20088;-77
2022/12/07 04:23:01;;;;;;;25.55;14.02;;;;;;;4.70;100.00;100772.97;5007976;28;20100;-77
2022/12/07 04:25:26;;;;;;;24.83;15.63;;;;;;;4.78;100.00;100768.88;5009446;28;20054;-76
2022/12/07 04:27:52;;;;;;;26.75;15.05;;;;;;;4.07;100.00;100630.81;5010276;28;20473;-75
2022/12/07 04:30:17;;;;;;;28.38;15.85;;;;;;;3.84;100.00;100622.34;5009542;28;20046;-77
2022/12/07 04:32:43;;;;;;;24.08;15.77;;;;;;;4.71;100.00;100750.47;5010279;28;20034;-76
2022/12/07 04:35:09;;;;;;;24.67;14.95;;;;;;;4.78;100.00;100753.28;5009604;28;20498;-76
2022/12/07 04:37:34;;;;;;;21.50;12.38;;;;;;;4.90;100.00;100739.75;5015371;28;22379;-76
2022/12/07 04:40:00;;;;;;;22.75;14.70;;;;;;;3.63;100.00;100526.56;5009482;28;20057;-77
2022/12/07 04:42:25;;;;;;;26.02;14.50;;;;;;;4.58;100.00;100698.13;5009296;28;20498;-77
2022/12/07 04:44:51;;;;;;;22.67;13.40;;;;;;;4.81;100.00;100745.56;5007324;28;20042;-76
2022/12/07 04:47:17;;;;;;;23.80;14.82;;;;;;;5.00;100.00;100765.16;5013774;28;20462;-76
2022/12/07 04:49:42;;;;;;;28.08;14.45;;;;;;;4.30;100.00;100688.63;5019435;28;20767;-80
2022/12/07 04:52:07;;;;;;;21.75;13.45;;;;;;;4.71;100.00;100734.88;5015691;28;20049;-77
2022/12/07 04:54:33;;;;;;;24.25;13.63;;;;;;;4.93;100.00;100763.22;5009336;28;20493;-76
2022/12/07 04:56:59;;;;;;;22.05;13.75;;;;;;;5.02;100.00;100752.22;5008996;28;20544;-75
2022/12/07 04:59:24;;;;;;;22.35;15.25;;;;;;;4.23;100.00;100625.22;5009957;28;20064;-75
2022/12/07 05:01:50;;;;;;;21.08;12.52;;;;;;;5.08;100.00;100750.69;5009170;28;20046;-76
2022/12/07 05:04:15;;;;;;;23.23;16.35;;;;;;;5.10;100.00;100752.41;5009218;28;20077;-76
2022/12/07 05:06:41;;;;;;;24.65;15.25;;;;;;;5.02;100.00;100757.41;5007793;28;20115;-77
2022/12/07 05:09:07;;;;;;;22.25;12.38;;;;;;;4.95;100.00;100758.09;5009362;28;20108;-77
2022/12/07 05:11:38;;;;;;;25.45;13.73;;;;;;;4.58;100.00;100708.50;5010359;28;20433;-77
2022/12/07 05:14:12;;;;;;;28.00;14.73;;;;;;;4.26;100.00;100620.97;5003205;28;20042;-78
2022/12/07 05:16:38;;;;;;;22.77;13.70;;;;;;;4.95;100.00;100740.75;5004045;28;20137;-76
2022/12/07 05:19:04;;;;;;;22.77;13.85;;;;;;;4.91;100.00;100714.63;5008983;28;20097;-77
2022/12/07 05:21:30;;;;;;;22.75;13.88;;;;;;;4.88;100.00;100735.34;5006367;28;20077;-76
2022/12/07 05:23:55;;;;;;;24.25;13.70;;;;;;;4.79;100.00;100721.25;5003372;28;20072;-81
2022/12/07 05:26:20;;;;;;;27.98;14.73;;;;;;;4.93;100.00;100749.34;5004490;28;20084;-75
2022/12/07 05:28:51;;;;;;;25.10;13.98;;;;;;;4.91;100.00;100757.09;5003311;28;20050;-79
2022/12/07 05:31:16;;;;;;;27.33;15.00;;;;;;;4.06;100.00;100594.44;5001859;28;20435;-79
2022/12/07 05:33:42;;;;;;;24.67;14.63;;;;;;;4.15;100.00;100610.28;5001050;28;20057;-83
2022/12/07 05:36:07;;;;;;;28.08;15.38;;;;;;;4.18;100.00;100625.94;5001047;28;20614;-81
2022/12/07 05:38:33;;;;;;;22.88;13.88;;;;;;;4.59;100.00;100720.69;5006867;28;20465;-80
2022/12/07 05:41:03;;;;;;;28.70;14.98;;;;;;;4.81;100.00;100752.50;4995552;28;20050;-82
2022/12/07 05:43:29;;;;;;;28.63;14.27;;;;;;;4.82;100.00;100744.75;4992241;28;20104;-79
2022/12/07 05:45:55;;;;;;;27.38;13.80;;;;;;;4.26;100.00;100653.03;5004612;28;20046;-80
2022/12/07 05:48:20;;;;;;;23.10;14.85;;;;;;;4.83;100.00;100736.09;4997859;28;20054;-79
2022/12/07 05:50:49;;;;;;;22.65;14.23;;;;;;;4.38;100.00;100666.38;5002991;28;20093;-79
2022/12/07 05:53:15;;;;;;;23.08;11.93;;;;;;;3.94;100.00;100621.78;4999042;28;20438;-79
2022/12/07 05:55:41;;;;;;;25.58;13.45;;;;;;;4.49;100.00;100712.56;5007782;28;20421;-78
2022/12/07 06:00:50;;;;;;;28.08;15.32;;;;;;;4.00;100.00;100653.13;5008588;28;20057;-80
2022/12/07 06:03:16;;;;;;;30.27;16.42;;;;;;;4.72;100.00;100768.69;5002464;28;20041;-79
2022/12/07 06:05:41;;;;;;;26.85;16.00;;;;;;;4.86;100.00;100767.38;5003582;28;20596;-78
2022/12/07 06:08:07;;;;;;;29.85;14.65;;;;;;;4.67;100.00;100740.81;5006407;28;20508;-81
2022/12/07 06:10:32;;;;;;;25.60;14.35;;;;;;;3.73;100.00;100564.06;5008451;28;20112;-79
2022/12/07 06:12:58;;;;;;;25.05;14.30;;;;;;;3.94;100.00;100606.22;5007683;28;20113;-82
2022/12/07 06:15:23;;;;;;;28.90;15.35;;;;;;;4.70;100.00;100733.97;5007951;28;20053;-80
2022/12/07 06:17:49;;;;;;;25.35;14.05;;;;;;;4.41;100.00;100674.25;5003360;28;20510;-79
2022/12/07 06:20:15;;;;;;;30.33;18.45;;;;;;;5.05;100.00;100775.69;5001675;28;20034;-80
2022/12/07 06:22:40;;;;;;;32.35;16.92;;;;;;;4.27;100.00;100657.38;5004991;28;20561;-81
2022/12/07 06:25:07;;;;;;;28.73;17.67;;;;;;;4.17;100.00;100634.59;5002736;28;20057;-81
2022/12/07 06:27:32;;;;;;;24.15;16.00;;;;;;;4.75;100.00;100752.31;5000561;28;20212;-80
2022/12/07 06:29:58;;;;;;;30.25;18.27;;;;;;;4.45;100.00;100683.03;5005976;28;20461;-78
2022/12/07 06:32:24;;;;;;;34.38;17.67;;;;;;;4.72;100.00;100740.09;5006517;28;20033;-81
2022/12/07 06:34:49;;;;;;;34.72;15.50;;;;;;;4.91;100.00;100788.31;5004044;28;20582;-80
2022/12/07 06:37:14;;;;;;;27.70;14.15;;;;;;;4.88;100.00;100771.75;5007650;28;20095;-80
2022/12/07 06:39:40;;;;;;;28.15;14.57;;;;;;;4.65;100.00;100694.84;5006636;28;20057;-81
2022/12/07 06:42:05;;;;;;;28.67;15.90;;;;;;;4.27;100.00;100654.78;4996237;28;20561;-80
2022/12/07 06:44:32;;;;;;;35.67;18.30;;;;;;;4.44;100.00;100658.75;5005920;28;20452;-79
2022/12/07 06:46:58;;;;;;;35.47;17.67;;;;;;;4.47;100.00;100652.75;5000547;28;20095;-80
2022/12/07 06:49:23;;;;;;;25.88;14.90;;;;;;;4.73;100.00;100704.59;5001183;28;20476;-79
2022/12/07 06:51:49;;;;;;;25.73;15.45;;;;;;;5.11;100.00;100780.22;5007336;28;20104;-79
2022/12/07 06:54:15;;;;;;;26.42;13.27;;;;;;;4.98;100.00;100785.03;5005217;28;20043;-80
2022/12/07 06:56:41;;;;;;;27.30;15.57;;;;;;;4.25;100.00;100651.25;5007856;28;20040;-79
2022/12/07 06:59:07;;;;;;;32.40;18.50;;;;;;;4.65;100.00;100700.06;5009960;28;20058;-78
2022/12/07 07:01:35;;;;;;;31.45;16.55;;;;;;;4.21;100.00;100616.53;5001822;28;20046;-82
2022/12/07 07:04:01;;;;;;;32.72;16.70;;;;;;;4.38;100.00;100643.00;4993715;28;20494;-81
2022/12/07 07:06:26;;;;;;;35.30;15.02;;;;;;;5.10;100.00;100771.50;5003724;28;20042;-79
2022/12/07 07:08:52;;;;;;;27.98;16.00;;;;;;;4.16;100.00;100607.72;5005902;28;20504;-80
2022/12/07 07:11:17;;;;;;;26.15;16.88;;;;;;;4.41;100.00;100640.47;5000828;28;20041;-80
2022/12/07 07:13:43;;;;;;;39.70;17.95;;;;;;;3.89;100.00;100583.56;5007385;28;20124;-79
2022/12/07 07:16:09;;;;;;;30.58;16.92;;;;;;;4.15;100.00;100592.09;5007219;28;20173;-81
2022/12/07 07:18:34;;;;;;;23.42;14.65;;;;;;;4.93;100.00;100711.22;5005388;28;20418;-81
2022/12/07 07:21:00;;;;;;;37.95;17.63;;;;;;;4.38;100.00;100623.94;5005774;28;20061;-82
2022/12/07 07:23:26;;;;;;;28.58;18.30;;;;;;;5.26;100.00;100752.88;5006816;28;20026;-81
2022/12/07 07:25:52;;;;;;;30.15;18.73;;;;;;;5.12;100.00;100732.53;5004103;28;20042;-83
2022/12/07 07:28:17;;;;;;;31.15;16.58;;;;;;;4.40;100.00;100596.25;4996693;28;20056;-78
2022/12/07 07:30:43;;;;;;;29.38;14.40;;;;;;;5.23;100.00;100716.38;5004322;28;20830;-80
2022/12/07 07:33:09;;;;;;;37.38;20.23;;;;;;;4.90;100.00;100674.75;5008142;28;20443;-80
2022/12/07 07:35:35;;;;;;;30.48;15.55;;;;;;;5.06;100.00;100770.56;5008290;28;20037;-80
2022/12/07 07:38:00;;;;;;;37.90;18.48;;;;;;;4.27;100.00;100622.75;4999689;28;20476;-79
2022/12/07 07:40:27;;;;;;;29.80;15.32;;;;;;;5.24;100.00;100769.28;5004594;28;20077;-83
2022/12/07 07:42:53;;;;;;;32.75;15.82;;;;;;;4.50;100.00;100636.41;5004208;28;20077;-84
2022/12/07 07:45:24;;;;;;;23.60;13.93;;;;;;;5.10;100.00;100757.63;5001852;28;20049;-83
2022/12/07 07:47:50;;;;;;;30.50;16.98;;;;;;;4.68;100.00;100668.06;5011318;28;20352;-80
2022/12/07 07:50:16;;;;;;;52.83;18.50;;;;;;;4.79;100.00;100730.75;5021528;28;20061;-81
2022/12/07 07:52:41;;;;;;;26.52;16.63;;;;;;;4.44;100.00;100650.06;5010098;28;20149;-75
2022/12/07 07:55:08;;;;;;;27.05;14.80;;;;;;;5.07;100.00;100767.09;5005883;28;20046;-76
2022/12/07 07:57:35;;;;;;;24.73;17.27;;;;;;;5.06;100.00;100787.88;5006293;28;20054;-77
2022/12/07 08:00:01;;;;;;;32.28;15.80;;;;;;;5.11;100.00;100781.09;4986237;28;20272;-72
2022/12/07 08:05:02;;;;;;;32.60;17.75;;;;;;;4.12;100.00;100561.75;4804581;26;20132;-77
2022/12/07 08:07:29;;;;;;;29.02;15.13;;;;;;;5.29;100.00;100780.69;5025832;28;20046;-78
2022/12/07 08:09:54;;;;;;;32.42;15.85;;;;;;;5.23;100.00;100785.75;5014429;28;20060;-82
2022/12/07 08:12:20;;;;;;;50.92;18.98;;;;;;;5.32;100.00;100780.81;5021638;28;20042;-77
2022/12/07 08:14:45;;;;;;;72.55;19.65;;;;;;;4.52;100.00;100635.59;5005756;28;20611;-77
2022/12/07 08:17:12;;;;;;;35.63;18.08;;;;;;;5.07;100.00;100729.81;5023091;28;20053;-76
2022/12/07 08:19:37;;;;;;;27.90;14.77;;;;;;;5.10;100.00;100776.69;5024334;28;20034;-76
2022/12/07 08:22:03;;;;;;;24.20;15.23;;;;;;;5.16;100.00;100787.28;5017939;28;20051;-78
2022/12/07 08:24:28;;;;;;;30.92;18.05;;;;;;;5.32;100.00;100778.19;5004946;28;20493;-81
2022/12/07 08:26:57;;;;;;;26.88;15.75;;;;;;;5.11;100.00;100733.41;5006139;28;20069;-79
2022/12/07 08:29:22;;;;;;;26.38;15.07;;;;;;;4.88;100.00;100694.63;5002230;28;20117;-78
2022/12/07 08:31:48;;;;;;;30.70;17.88;;;;;;;4.49;100.00;100624.22;5010815;28;20101;-78
2022/12/07 08:34:14;;;;;;;26.85;17.08;;;;;;;4.40;100.00;100648.22;5025153;28;20477;-79
2022/12/07 08:36:39;;;;;;;24.58;13.93;;;;;;;4.31;100.00;100633.28;5027154;28;20538;-78
2022/12/07 08:39:05;;;;;;;36.25;14.80;;;;;;;4.87;100.00;100742.28;5030231;28;20548;-77
2022/12/07 08:41:31;;;;;;;29.58;15.35;;;;;;;4.21;100.00;100641.59;5028001;28;20034;-76
2022/12/07 08:43:56;;;;;;;24.45;15.10;;;;;;;4.49;100.00;100621.63;5012391;28;20409;-76
2022/12/07 08:46:33;;;;;;;34.05;17.77;;;;;;;5.39;100.00;100772.31;5018859;28;20571;-78
2022/12/07 08:49:11;;;;;;;22.88;16.25;;;;;;;4.50;100.00;100610.41;5019677;28;20768;-76
2022/12/07 08:51:38;;;;;;;24.40;14.57;;;;;;;5.44;100.00;100751.63;5010445;28;20194;-76
2022/12/07 08:54:09;;;;;;;37.08;15.57;;;;;;;5.17;100.00;100726.63;5023525;28;20849;-77
2022/12/07 08:56:35;;;;;;;28.10;15.63;;;;;;;5.35;100.00;100735.75;5013175;28;20077;-77
2022/12/07 08:59:00;;;;;;;27.08;18.85;;;;;;;5.30;100.00;100733.03;5023830;28;20181;-77
2022/12/07 09:01:26;;;;;;;24.73;14.02;;;;;;;5.26;100.00;100732.06;5016628;28;20037;-77
2022/12/07 09:03:52;;;;;;;31.67;15.95;;;;;;;4.43;100.00;100622.34;5019635;28;20585;-77
2022/12/07 09:06:18;;;;;;;28.85;16.30;;;;;;;5.24;100.00;100730.25;4991130;28;20067;-76
2022/12/07 09:08:49;;;;;;;25.63;14.43;;;;;;;4.70;100.00;100604.00;5011877;28;20081;-76
2022/12/07 09:11:15;;;;;;;35.92;18.60;;;;;;;5.16;100.00;100687.56;5022463;28;20129;-72
2022/12/07 09:13:40;;;;;;;36.45;14.40;;;;;;;4.77;100.00;100605.06;5025330;28;20053;-72
2022/12/07 09:16:06;;;;;;;29.15;16.58;;;;;;;4.58;100.00;100601.97;5005777;28;20062;-73
2022/12/07 09:18:31;;;;;;;23.23;14.65;;;;;;;5.36;100.00;100758.31;5005267;28;20118;-74
2022/12/07 09:20:57;;;;;;;24.98;14.63;;;;;;;4.55;100.00;100611.41;5007139;28;20048;-74
2022/12/07 09:23:22;;;;;;;29.95;15.43;;;;;;;4.64;100.00;100586.56;5029752;28;20409;-73
2022/12/07 09:25:48;;;;;;;23.92;17.33;;;;;;;5.28;100.00;100740.78;5015252;28;20056;-74
2022/12/07 09:28:13;;;;;;;24.17;13.90;;;;;;;5.44;100.00;100736.00;5032025;28;20121;-68
2022/12/07 09:30:44;;;;;;;34.40;18.73;;;;;;;4.93;100.00;100648.81;5029847;28;21190;-71
2022/12/07 09:33:10;;;;;;;29.55;16.67;;;;;;;5.16;100.00;100703.19;5017945;28;20057;-73
2022/12/07 09:35:35;;;;;;;29.30;16.52;;;;;;;4.84;100.00;100620.84;5012141;28;20041;-72
2022/12/07 09:38:00;;;;;;;25.15;14.93;;;;;;;5.29;100.00;100700.03;5026316;28;20045;-74
2022/12/07 09:40:27;;;;;;;26.55;16.48;;;;;;;5.53;100.00;100720.63;5021593;28;20053;-74
2022/12/07 09:42:55;;;;;;;22.48;13.48;;;;;;;5.50;100.00;100726.63;5029486;28;20088;-73
2022/12/07 09:45:25;;;;;;;25.27;16.88;;;;;;;5.50;100.00;100716.22;5030855;28;20045;-76
2022/12/07 09:47:51;;;;;;;26.98;16.23;;;;;;;4.58;100.00;100577.69;5025478;28;20487;-75
2022/12/07 09:50:21;;;;;;;29.35;16.75;;;;;;;4.72;100.00;100578.94;5028056;28;20112;-73
2022/12/07 09:52:48;;;;;;;22.48;14.80;;;;;;;5.45;100.00;100704.78;5007682;28;20046;-73
2022/12/07 09:55:24;;;;;;;42.15;16.35;;;;;;;5.34;100.00;100690.66;5008838;28;20057;-73
2022/12/07 09:57:51;;;;;;;25.13;15.57;;;;;;;5.22;100.00;100704.22;5007068;28;20041;-73
2022/12/07 10:00:23;;;;;;;22.15;13.38;;;;;;;4.85;100.00;100612.22;5004226;28;20049;-78
2022/12/07 10:02:57;;;;;;;30.33;16.92;;;;;;;4.69;100.00;100578.00;5009036;28;20046;-74
2022/12/07 10:05:44;;;;;;;22.38;14.57;;;;;;;5.37;100.00;100715.88;5010457;28;20856;-73
2022/12/07 10:08:13;;;;;;;26.02;16.77;;;;;;;5.47;100.00;100713.53;5006109;28;20504;-73
2022/12/07 10:10:39;;;;;;;22.48;15.75;;;;;;;5.16;100.00;100695.38;5009106;28;20057;-75
2022/12/07 10:13:14;;;;;;;23.65;15.25;;;;;;;4.62;100.00;100582.16;5008211;28;20041;-75
2022/12/07 10:15:52;;;;;;;27.58;16.70;;;;;;;4.86;100.00;100595.78;5006854;28;20469;-74
2022/12/07 10:18:20;;;;;;;30.60;15.10;;;;;;;5.33;100.00;100709.69;5012926;28;20660;-74
2022/12/07 10:20:47;;;;;;;34.38;16.35;;;;;;;4.58;100.00;100554.31;5015180;28;20033;-73
2022/12/07 10:23:17;;;;;;;37.22;18.38;;;;;;;5.10;100.00;100683.06;5030793;28;20065;-75
2022/12/07 10:25:45;;;;;;;25.92;14.82;;;;;;;4.89;100.00;100659.09;5026675;28;20069;-70
2022/12/07 10:28:18;;;;;;;35.72;19.95;;;;;;;5.16;100.00;100666.78;5022005;28;20127;-74
2022/12/07 10:31:04;;;;;;;;;;;;;;;5.43;100.00;100687.38;5012786;28;20120;-74
2022/12/07 10:33:37;;;;;;;26.88;15.00;;;;;;;5.15;100.00;100691.91;5039460;28;19947;-76
2022/12/07 10:36:22;;;;;;;29.60;15.43;;;;;;;5.28;100.00;100651.47;5029387;28;20081;-75
2022/12/07 10:39:00;;;;;;;28.77;16.38;;;;;;;5.49;100.00;100674.53;5028596;28;20091;-73
2022/12/07 10:41:26;;;;;;;30.40;17.23;;;;;;;5.32;100.00;100636.81;5011907;28;20390;-78
2022/12/07 10:43:55;;;;;;;29.05;16.70;;;;;;;4.39;100.00;100480.22;5004749;28;20042;-74
2022/12/07 10:46:47;;;;;;;36.17;21.05;;;;;;;4.86;100.00;100577.59;5029204;28;20045;-74
2022/12/07 10:49:18;;;;;;;33.22;17.95;;;;;;;5.54;100.00;100680.72;5002250;28;20459;-75
2022/12/07 10:51:57;;;;;;;48.30;20.05;;;;;;;5.57;100.00;100688.63;5013417;28;20040;-75
2022/12/07 10:54:37;;;;;;;30.45;19.80;;;;;;;4.75;100.00;100550.47;5026982;28;20057;-74
2022/12/07 10:57:47;;;;;;;32.03;18.45;;;;;;;5.59;100.00;100679.13;5023422;28;20030;-74
2022/12/07 11:00:23;;;;;;;32.20;19.63;;;;;;;4.77;100.00;100548.75;5012228;28;20061;-75
2022/12/07 11:03:04;;;;;;;28.17;17.77;;;;;;;5.49;100.00;100683.22;5024657;28;20072;-74
2022/12/07 11:05:58;;;;;;;30.55;19.45;;;;;;;5.62;100.00;100688.72;5023961;28;20056;-73
2022/12/07 11:09:08;;;;;;;24.88;16.42;;;;;;;5.47;100.00;100671.88;5031409;28;20052;-76
2022/12/07 11:11:50;;;;;;;38.58;22.20;;;;;;;5.36;100.00;100647.34;5025085;28;20484;-75
2022/12/07 11:14:36;;;;;;;33.80;18.85;;;;;;;4.69;100.00;100541.63;5028086;28;20097;-76
2022/12/07 11:17:14;;;;;;;38.90;19.20;;;;;;;5.55;100.00;100679.91;5008703;28;20493;-75
2022/12/07 11:20:00;;;;;;;27.42;18.55;;;;;;;5.44;100.00;100679.63;5026646;28;20054;-73
2022/12/07 11:22:26;;;;;;;32.75;18.23;;;;;;;5.50;100.00;100672.00;5026796;28;20078;-81
2022/12/07 11:25:16;;;;;;;33.88;18.13;;;;;;;5.28;100.00;100670.56;5027607;28;20539;-75